Aérodrome :
LOGIN :

S'inscrire | Disclaimer

   EN    FR    IT 

 










Légende :    VFR   VFR Marginal   IFR   IFR Intensif   IFR Très Intensif
Visi : 
Plafond : 
>= 8 km
>= 3000ft
5 à 8 km
1000 à 3000 ft
1500m à 5 km
500 à 1000 ft
800 à 1500m
200 à 500 ft
< 800m
< 200 ft
Symboles :   Orages  Brouillard  Fortes neiges  Fortes précipitations  Vent > 20 kt
SIGMETs :   Divers  Orages  Givrage  Turbulence  Onde Orograph.  Cendres Volcan.







- Altitude de l'aérodrome : 1516 ft
- Code IATA : AGB


EDMA - Augsburg

DERNIER METAR :
  • 261150Z 26012KT 9999 -RA BKN012 BKN035 14/13 Q1009

METARs EXPIRÉS :
  • 261130Z 26013KT 9999 -RA SCT010 BKN012 OVC053 14/13 Q1009 RMK ATIS Q
  • 261120Z 25013KT 9999 -RA BKN009 BKN040 14/13 Q1009
  • 261050Z 26012KT 9999 -RA SCT011 OVC067 14/13 Q1009
  • 261020Z 25013KT 9999 -RA FEW009 BKN012 OVC064 13/12 Q1009
  • 260950Z 25013KT 9000 -RA FEW009 BKN012 OVC028 13/12 Q1009
  • 260920Z 26014KT 9999 FEW009 BKN011 OVC015 13/12 Q1008

TAF TAF EDMA
Valide du 26 à 12h jusqu'au 26 à 21h UTC


261100Z 2612/2621 28015G25KT 9999 SCT010 OVC020
TEMPO 2612/2618 4000 RA OVC009
BECMG 2616/2618 27007KT
Pas de NOTAMs connus pour ce terrain.



MET'MAP, la Météo Aéronautique d'un coup d'oeil ! - Copyright ORBIFLY Décembre 2007 - Disclaimer

ORBIFLY MET'MAP TEAM :

Programmation & Développement : Alexandra Zaïnal
Conception & Développement : Baudouin d'Aumeries
Co-Programmation & Développement : Marc-Olivier Méhu
Soutien technique & logistique : Manuel Goepfert

Contact : metmap@orbifly.com




SOURCES & CREDITS :

   NOAA